sensor_id;sensor_type;location;lat;lon;timestamp;P1;durP1;ratioP1;P2;durP2;ratioP2
41799;SDS011;27468;47.460;19.034;2022-10-22T00:02:10;10.45;;;6.57;;
41799;SDS011;27468;47.460;19.034;2022-10-22T00:04:39;9.57;;;6.30;;
41799;SDS011;27468;47.460;19.034;2022-10-22T00:07:05;9.27;;;5.78;;
41799;SDS011;27468;47.460;19.034;2022-10-22T00:09:30;9.50;;;5.90;;
41799;SDS011;27468;47.460;19.034;2022-10-22T00:11:56;11.30;;;5.88;;
41799;SDS011;27468;47.460;19.034;2022-10-22T00:14:21;10.23;;;5.90;;
41799;SDS011;27468;47.460;19.034;2022-10-22T00:16:46;8.10;;;5.53;;
41799;SDS011;27468;47.460;19.034;2022-10-22T00:19:12;9.32;;;5.85;;
41799;SDS011;27468;47.460;19.034;2022-10-22T00:21:38;9.23;;;5.97;;
41799;SDS011;27468;47.460;19.034;2022-10-22T00:24:04;8.43;;;5.50;;
41799;SDS011;27468;47.460;19.034;2022-10-22T00:26:29;8.90;;;5.65;;
41799;SDS011;27468;47.460;19.034;2022-10-22T00:28:55;9.77;;;5.72;;
41799;SDS011;27468;47.460;19.034;2022-10-22T00:31:20;8.57;;;5.50;;
41799;SDS011;27468;47.460;19.034;2022-10-22T00:33:46;13.50;;;6.10;;
41799;SDS011;27468;47.460;19.034;2022-10-22T00:36:12;8.07;;;5.68;;
41799;SDS011;27468;47.460;19.034;2022-10-22T00:38:38;10.35;;;5.68;;
41799;SDS011;27468;47.460;19.034;2022-10-22T00:41:04;8.63;;;6.07;;
41799;SDS011;27468;47.460;19.034;2022-10-22T00:43:29;8.60;;;5.95;;
41799;SDS011;27468;47.460;19.034;2022-10-22T00:45:55;9.15;;;5.57;;
41799;SDS011;27468;47.460;19.034;2022-10-22T00:48:24;9.43;;;5.82;;
41799;SDS011;27468;47.460;19.034;2022-10-22T00:51:02;10.38;;;5.95;;
41799;SDS011;27468;47.460;19.034;2022-10-22T00:53:31;10.45;;;5.88;;
41799;SDS011;27468;47.460;19.034;2022-10-22T00:56:00;7.93;;;5.68;;
41799;SDS011;27468;47.460;19.034;2022-10-22T00:58:27;8.38;;;5.75;;
41799;SDS011;27468;47.460;19.034;2022-10-22T01:00:55;10.65;;;5.95;;
41799;SDS011;27468;47.460;19.034;2022-10-22T01:03:21;9.40;;;5.80;;
41799;SDS011;27468;47.460;19.034;2022-10-22T01:05:55;8.20;;;5.38;;
41799;SDS011;27468;47.460;19.034;2022-10-22T01:08:27;7.82;;;5.25;;
41799;SDS011;27468;47.460;19.034;2022-10-22T01:11:14;9.90;;;6.05;;
41799;SDS011;27468;47.460;19.034;2022-10-22T01:16:54;9.48;;;5.85;;
41799;SDS011;27468;47.460;19.034;2022-10-22T01:22:27;10.57;;;6.25;;
41799;SDS011;27468;47.460;19.034;2022-10-22T01:30:04;10.00;;;5.63;;
41799;SDS011;27468;47.460;19.034;2022-10-22T01:32:34;8.40;;;5.38;;
41799;SDS011;27468;47.460;19.034;2022-10-22T01:35:05;9.48;;;6.13;;
41799;SDS011;27468;47.460;19.034;2022-10-22T01:37:35;9.27;;;5.80;;
41799;SDS011;27468;47.460;19.034;2022-10-22T01:40:08;8.95;;;5.72;;
41799;SDS011;27468;47.460;19.034;2022-10-22T01:42:35;9.10;;;6.10;;
41799;SDS011;27468;47.460;19.034;2022-10-22T01:45:00;8.57;;;5.55;;
41799;SDS011;27468;47.460;19.034;2022-10-22T02:03:51;7.93;;;5.35;;
41799;SDS011;27468;47.460;19.034;2022-10-22T02:06:30;9.07;;;5.88;;
41799;SDS011;27468;47.460;19.034;2022-10-22T02:08:57;9.35;;;5.75;;
41799;SDS011;27468;47.460;19.034;2022-10-22T02:11:26;8.10;;;5.22;;
41799;SDS011;27468;47.460;19.034;2022-10-22T02:13:52;8.63;;;5.45;;
41799;SDS011;27468;47.460;19.034;2022-10-22T02:16:23;8.55;;;5.28;;
41799;SDS011;27468;47.460;19.034;2022-10-22T02:18:53;9.55;;;5.43;;
41799;SDS011;27468;47.460;19.034;2022-10-22T02:21:22;8.80;;;5.18;;
41799;SDS011;27468;47.460;19.034;2022-10-22T02:23:48;9.32;;;5.28;;
41799;SDS011;27468;47.460;19.034;2022-10-22T02:26:15;9.25;;;5.45;;
41799;SDS011;27468;47.460;19.034;2022-10-22T02:31:23;8.73;;;6.05;;
41799;SDS011;27468;47.460;19.034;2022-10-22T02:33:54;11.02;;;5.88;;
41799;SDS011;27468;47.460;19.034;2022-10-22T02:36:22;8.65;;;6.13;;
41799;SDS011;27468;47.460;19.034;2022-10-22T02:38:48;9.20;;;6.05;;
41799;SDS011;27468;47.460;19.034;2022-10-22T02:41:16;8.80;;;6.25;;
41799;SDS011;27468;47.460;19.034;2022-10-22T02:43:43;9.32;;;5.85;;
41799;SDS011;27468;47.460;19.034;2022-10-22T02:46:14;8.30;;;6.07;;
41799;SDS011;27468;47.460;19.034;2022-10-22T02:48:40;7.63;;;5.95;;
41799;SDS011;27468;47.460;19.034;2022-10-22T02:51:05;9.93;;;6.70;;
41799;SDS011;27468;47.460;19.034;2022-10-22T02:53:30;10.55;;;6.38;;
41799;SDS011;27468;47.460;19.034;2022-10-22T02:55:56;8.93;;;6.00;;
41799;SDS011;27468;47.460;19.034;2022-10-22T02:58:22;9.50;;;6.53;;
41799;SDS011;27468;47.460;19.034;2022-10-22T03:00:47;9.93;;;6.28;;
41799;SDS011;27468;47.460;19.034;2022-10-22T03:03:13;10.68;;;7.00;;
41799;SDS011;27468;47.460;19.034;2022-10-22T03:05:38;10.45;;;6.55;;
41799;SDS011;27468;47.460;19.034;2022-10-22T03:08:04;11.00;;;6.80;;
41799;SDS011;27468;47.460;19.034;2022-10-22T03:10:29;8.93;;;6.57;;
41799;SDS011;27468;47.460;19.034;2022-10-22T03:12:54;10.25;;;6.55;;
41799;SDS011;27468;47.460;19.034;2022-10-22T03:15:20;9.95;;;7.03;;
41799;SDS011;27468;47.460;19.034;2022-10-22T03:20:18;9.32;;;6.60;;
41799;SDS011;27468;47.460;19.034;2022-10-22T03:22:43;10.02;;;6.72;;
41799;SDS011;27468;47.460;19.034;2022-10-22T03:25:10;10.75;;;6.45;;
41799;SDS011;27468;47.460;19.034;2022-10-22T03:27:40;11.70;;;7.20;;
41799;SDS011;27468;47.460;19.034;2022-10-22T03:30:07;10.25;;;6.50;;
41799;SDS011;27468;47.460;19.034;2022-10-22T03:32:33;11.68;;;7.32;;
41799;SDS011;27468;47.460;19.034;2022-10-22T03:34:58;9.80;;;6.72;;
41799;SDS011;27468;47.460;19.034;2022-10-22T03:37:24;10.50;;;7.07;;
41799;SDS011;27468;47.460;19.034;2022-10-22T03:39:51;12.77;;;7.68;;
41799;SDS011;27468;47.460;19.034;2022-10-22T03:42:17;9.02;;;6.43;;
41799;SDS011;27468;47.460;19.034;2022-10-22T03:44:43;11.95;;;7.22;;
41799;SDS011;27468;47.460;19.034;2022-10-22T03:47:09;13.65;;;7.50;;
41799;SDS011;27468;47.460;19.034;2022-10-22T03:49:35;10.55;;;6.97;;
41799;SDS011;27468;47.460;19.034;2022-10-22T03:52:04;10.48;;;7.10;;
41799;SDS011;27468;47.460;19.034;2022-10-22T03:54:34;12.23;;;7.18;;
41799;SDS011;27468;47.460;19.034;2022-10-22T03:57:00;11.73;;;7.57;;
41799;SDS011;27468;47.460;19.034;2022-10-22T03:59:25;9.55;;;7.10;;
41799;SDS011;27468;47.460;19.034;2022-10-22T04:01:51;10.43;;;7.13;;
41799;SDS011;27468;47.460;19.034;2022-10-22T04:04:16;10.93;;;7.05;;
41799;SDS011;27468;47.460;19.034;2022-10-22T04:06:42;9.55;;;6.95;;
41799;SDS011;27468;47.460;19.034;2022-10-22T04:09:07;10.40;;;7.03;;
41799;SDS011;27468;47.460;19.034;2022-10-22T04:11:32;13.25;;;7.45;;
41799;SDS011;27468;47.460;19.034;2022-10-22T04:13:58;11.82;;;7.32;;
41799;SDS011;27468;47.460;19.034;2022-10-22T04:16:30;13.18;;;7.50;;
41799;SDS011;27468;47.460;19.034;2022-10-22T04:18:56;11.25;;;6.93;;
41799;SDS011;27468;47.460;19.034;2022-10-22T04:21:22;12.93;;;7.30;;
41799;SDS011;27468;47.460;19.034;2022-10-22T04:23:49;10.65;;;6.60;;
41799;SDS011;27468;47.460;19.034;2022-10-22T04:26:16;13.65;;;7.65;;
41799;SDS011;27468;47.460;19.034;2022-10-22T04:28:43;9.43;;;7.13;;
41799;SDS011;27468;47.460;19.034;2022-10-22T04:31:10;11.55;;;7.78;;
41799;SDS011;27468;47.460;19.034;2022-10-22T04:33:37;12.10;;;7.53;;
41799;SDS011;27468;47.460;19.034;2022-10-22T04:36:09;10.18;;;7.15;;
41799;SDS011;27468;47.460;19.034;2022-10-22T04:38:40;12.27;;;7.15;;
41799;SDS011;27468;47.460;19.034;2022-10-22T04:41:14;10.98;;;7.38;;
41799;SDS011;27468;47.460;19.034;2022-10-22T04:43:41;12.00;;;7.57;;
41799;SDS011;27468;47.460;19.034;2022-10-22T04:46:07;11.18;;;7.30;;
41799;SDS011;27468;47.460;19.034;2022-10-22T04:48:36;13.60;;;7.63;;
41799;SDS011;27468;47.460;19.034;2022-10-22T04:51:02;10.45;;;7.22;;
41799;SDS011;27468;47.460;19.034;2022-10-22T04:53:29;10.68;;;7.45;;
41799;SDS011;27468;47.460;19.034;2022-10-22T04:55:54;12.32;;;7.18;;
41799;SDS011;27468;47.460;19.034;2022-10-22T04:58:19;10.32;;;7.28;;
41799;SDS011;27468;47.460;19.034;2022-10-22T05:00:45;11.13;;;7.45;;
41799;SDS011;27468;47.460;19.034;2022-10-22T05:03:10;13.02;;;7.72;;
41799;SDS011;27468;47.460;19.034;2022-10-22T05:05:36;12.38;;;7.13;;
41799;SDS011;27468;47.460;19.034;2022-10-22T05:08:01;11.52;;;7.78;;
41799;SDS011;27468;47.460;19.034;2022-10-22T05:10:27;13.40;;;7.45;;
41799;SDS011;27468;47.460;19.034;2022-10-22T05:12:52;13.02;;;7.97;;
41799;SDS011;27468;47.460;19.034;2022-10-22T05:15:18;12.10;;;7.40;;
41799;SDS011;27468;47.460;19.034;2022-10-22T05:17:43;11.30;;;7.45;;
41799;SDS011;27468;47.460;19.034;2022-10-22T05:20:09;12.27;;;8.25;;
41799;SDS011;27468;47.460;19.034;2022-10-22T05:22:34;11.45;;;7.70;;
41799;SDS011;27468;47.460;19.034;2022-10-22T05:25:00;11.32;;;7.63;;
41799;SDS011;27468;47.460;19.034;2022-10-22T05:27:25;13.90;;;7.90;;
41799;SDS011;27468;47.460;19.034;2022-10-22T05:29:51;11.60;;;7.65;;
41799;SDS011;27468;47.460;19.034;2022-10-22T05:32:16;10.43;;;7.57;;
41799;SDS011;27468;47.460;19.034;2022-10-22T05:34:42;11.30;;;7.30;;
41799;SDS011;27468;47.460;19.034;2022-10-22T05:37:08;11.02;;;7.13;;
41799;SDS011;27468;47.460;19.034;2022-10-22T05:39:33;10.48;;;7.53;;
41799;SDS011;27468;47.460;19.034;2022-10-22T05:42:01;16.65;;;9.63;;
41799;SDS011;27468;47.460;19.034;2022-10-22T05:44:27;10.70;;;7.18;;
41799;SDS011;27468;47.460;19.034;2022-10-22T05:46:52;11.07;;;7.60;;
41799;SDS011;27468;47.460;19.034;2022-10-22T05:49:18;10.65;;;7.20;;
41799;SDS011;27468;47.460;19.034;2022-10-22T05:51:44;10.40;;;7.70;;
41799;SDS011;27468;47.460;19.034;2022-10-22T05:54:16;8.95;;;6.72;;
41799;SDS011;27468;47.460;19.034;2022-10-22T05:56:43;9.95;;;7.43;;
41799;SDS011;27468;47.460;19.034;2022-10-22T05:59:12;12.00;;;7.35;;
41799;SDS011;27468;47.460;19.034;2022-10-22T06:01:37;11.18;;;7.25;;
41799;SDS011;27468;47.460;19.034;2022-10-22T06:04:04;11.85;;;7.35;;
41799;SDS011;27468;47.460;19.034;2022-10-22T06:09:01;9.02;;;6.85;;
41799;SDS011;27468;47.460;19.034;2022-10-22T06:11:30;13.65;;;7.80;;
41799;SDS011;27468;47.460;19.034;2022-10-22T06:13:56;9.85;;;6.90;;
41799;SDS011;27468;47.460;19.034;2022-10-22T06:16:21;11.52;;;7.78;;
41799;SDS011;27468;47.460;19.034;2022-10-22T06:18:47;13.38;;;7.72;;
41799;SDS011;27468;47.460;19.034;2022-10-22T06:21:13;12.23;;;7.55;;
41799;SDS011;27468;47.460;19.034;2022-10-22T06:23:39;14.35;;;7.53;;
41799;SDS011;27468;47.460;19.034;2022-10-22T06:26:06;12.20;;;7.28;;
41799;SDS011;27468;47.460;19.034;2022-10-22T06:28:31;11.13;;;7.63;;
41799;SDS011;27468;47.460;19.034;2022-10-22T06:30:58;10.57;;;7.30;;
41799;SDS011;27468;47.460;19.034;2022-10-22T06:33:24;11.80;;;7.03;;
41799;SDS011;27468;47.460;19.034;2022-10-22T06:35:51;12.68;;;7.15;;
41799;SDS011;27468;47.460;19.034;2022-10-22T06:38:16;10.38;;;7.05;;
41799;SDS011;27468;47.460;19.034;2022-10-22T06:40:42;11.60;;;7.18;;
41799;SDS011;27468;47.460;19.034;2022-10-22T06:43:09;12.00;;;7.75;;
41799;SDS011;27468;47.460;19.034;2022-10-22T06:45:38;9.85;;;6.85;;
41799;SDS011;27468;47.460;19.034;2022-10-22T06:48:03;19.30;;;7.60;;
41799;SDS011;27468;47.460;19.034;2022-10-22T06:50:29;13.70;;;7.45;;
41799;SDS011;27468;47.460;19.034;2022-10-22T06:52:55;12.70;;;7.72;;
41799;SDS011;27468;47.460;19.034;2022-10-22T06:55:21;13.10;;;7.68;;
41799;SDS011;27468;47.460;19.034;2022-10-22T06:57:46;10.63;;;7.13;;
41799;SDS011;27468;47.460;19.034;2022-10-22T07:00:12;10.10;;;6.85;;
41799;SDS011;27468;47.460;19.034;2022-10-22T07:02:38;11.15;;;7.25;;
41799;SDS011;27468;47.460;19.034;2022-10-22T07:05:03;12.23;;;7.10;;
41799;SDS011;27468;47.460;19.034;2022-10-22T07:07:29;10.88;;;7.70;;
41799;SDS011;27468;47.460;19.034;2022-10-22T07:09:54;12.60;;;7.88;;
41799;SDS011;27468;47.460;19.034;2022-10-22T07:12:20;11.88;;;7.38;;
41799;SDS011;27468;47.460;19.034;2022-10-22T07:14:45;10.38;;;6.57;;
41799;SDS011;27468;47.460;19.034;2022-10-22T07:17:11;11.50;;;7.95;;
41799;SDS011;27468;47.460;19.034;2022-10-22T07:19:36;12.85;;;7.20;;
41799;SDS011;27468;47.460;19.034;2022-10-22T07:22:01;11.75;;;7.70;;
41799;SDS011;27468;47.460;19.034;2022-10-22T07:24:27;11.95;;;7.57;;
41799;SDS011;27468;47.460;19.034;2022-10-22T07:26:52;12.07;;;7.45;;
41799;SDS011;27468;47.460;19.034;2022-10-22T07:29:18;13.40;;;8.00;;
41799;SDS011;27468;47.460;19.034;2022-10-22T07:31:43;12.65;;;8.55;;
41799;SDS011;27468;47.460;19.034;2022-10-22T07:34:09;12.82;;;8.80;;
41799;SDS011;27468;47.460;19.034;2022-10-22T07:36:34;15.60;;;8.57;;
41799;SDS011;27468;47.460;19.034;2022-10-22T07:39:00;12.40;;;8.20;;
41799;SDS011;27468;47.460;19.034;2022-10-22T07:41:27;12.57;;;8.60;;
41799;SDS011;27468;47.460;19.034;2022-10-22T07:43:54;12.80;;;7.53;;
41799;SDS011;27468;47.460;19.034;2022-10-22T07:46:20;11.95;;;7.68;;
41799;SDS011;27468;47.460;19.034;2022-10-22T07:48:45;11.98;;;8.80;;
41799;SDS011;27468;47.460;19.034;2022-10-22T07:51:11;11.80;;;8.32;;
41799;SDS011;27468;47.460;19.034;2022-10-22T07:53:37;12.65;;;8.65;;
41799;SDS011;27468;47.460;19.034;2022-10-22T07:56:02;13.27;;;8.57;;
41799;SDS011;27468;47.460;19.034;2022-10-22T07:58:28;14.20;;;9.50;;
41799;SDS011;27468;47.460;19.034;2022-10-22T08:00:55;13.70;;;8.82;;
41799;SDS011;27468;47.460;19.034;2022-10-22T08:03:21;14.23;;;8.60;;
41799;SDS011;27468;47.460;19.034;2022-10-22T08:05:47;14.35;;;8.90;;
41799;SDS011;27468;47.460;19.034;2022-10-22T08:08:13;14.05;;;8.63;;
41799;SDS011;27468;47.460;19.034;2022-10-22T08:10:39;14.13;;;8.93;;
41799;SDS011;27468;47.460;19.034;2022-10-22T08:13:06;15.55;;;9.48;;
41799;SDS011;27468;47.460;19.034;2022-10-22T08:15:32;15.77;;;8.95;;
41799;SDS011;27468;47.460;19.034;2022-10-22T08:17:57;14.55;;;9.30;;
41799;SDS011;27468;47.460;19.034;2022-10-22T08:20:22;15.55;;;9.20;;
41799;SDS011;27468;47.460;19.034;2022-10-22T08:22:48;13.18;;;9.77;;
41799;SDS011;27468;47.460;19.034;2022-10-22T08:25:14;13.55;;;9.27;;
41799;SDS011;27468;47.460;19.034;2022-10-22T08:27:40;13.93;;;10.00;;
41799;SDS011;27468;47.460;19.034;2022-10-22T08:30:05;15.70;;;8.65;;
41799;SDS011;27468;47.460;19.034;2022-10-22T08:32:31;14.20;;;8.57;;
41799;SDS011;27468;47.460;19.034;2022-10-22T08:34:57;14.55;;;8.75;;
41799;SDS011;27468;47.460;19.034;2022-10-22T08:37:23;15.20;;;9.18;;
41799;SDS011;27468;47.460;19.034;2022-10-22T08:39:48;14.05;;;9.20;;
41799;SDS011;27468;47.460;19.034;2022-10-22T08:45:22;14.25;;;10.18;;
41799;SDS011;27468;47.460;19.034;2022-10-22T08:47:56;15.27;;;10.15;;
41799;SDS011;27468;47.460;19.034;2022-10-22T08:50:41;18.17;;;10.52;;
41799;SDS011;27468;47.460;19.034;2022-10-22T08:53:14;16.67;;;8.68;;
41799;SDS011;27468;47.460;19.034;2022-10-22T08:55:42;14.15;;;9.40;;
41799;SDS011;27468;47.460;19.034;2022-10-22T09:06:29;15.25;;;10.30;;
41799;SDS011;27468;47.460;19.034;2022-10-22T09:08:56;14.38;;;10.20;;
41799;SDS011;27468;47.460;19.034;2022-10-22T09:11:27;15.63;;;10.25;;
41799;SDS011;27468;47.460;19.034;2022-10-22T09:13:56;15.00;;;11.15;;
41799;SDS011;27468;47.460;19.034;2022-10-22T09:24:38;14.25;;;10.95;;
41799;SDS011;27468;47.460;19.034;2022-10-22T09:29:44;16.80;;;10.95;;
41799;SDS011;27468;47.460;19.034;2022-10-22T09:32:11;16.95;;;11.18;;
41799;SDS011;27468;47.460;19.034;2022-10-22T09:34:37;17.08;;;11.40;;
41799;SDS011;27468;47.460;19.034;2022-10-22T09:37:04;15.77;;;9.85;;
41799;SDS011;27468;47.460;19.034;2022-10-22T09:39:32;15.00;;;9.55;;
41799;SDS011;27468;47.460;19.034;2022-10-22T09:42:04;16.75;;;11.15;;
41799;SDS011;27468;47.460;19.034;2022-10-22T09:44:34;16.70;;;10.15;;
41799;SDS011;27468;47.460;19.034;2022-10-22T09:47:04;16.40;;;10.60;;
41799;SDS011;27468;47.460;19.034;2022-10-22T09:49:32;16.92;;;11.52;;
41799;SDS011;27468;47.460;19.034;2022-10-22T09:51:59;19.90;;;11.43;;
41799;SDS011;27468;47.460;19.034;2022-10-22T09:59:25;16.17;;;11.07;;
41799;SDS011;27468;47.460;19.034;2022-10-22T10:01:56;19.30;;;11.77;;
41799;SDS011;27468;47.460;19.034;2022-10-22T10:04:23;16.42;;;11.00;;
41799;SDS011;27468;47.460;19.034;2022-10-22T10:06:51;18.45;;;11.80;;
41799;SDS011;27468;47.460;19.034;2022-10-22T10:09:20;17.25;;;11.55;;
41799;SDS011;27468;47.460;19.034;2022-10-22T10:11:52;17.45;;;11.63;;
41799;SDS011;27468;47.460;19.034;2022-10-22T10:20:19;18.73;;;11.32;;
41799;SDS011;27468;47.460;19.034;2022-10-22T10:25:41;18.38;;;12.05;;
41799;SDS011;27468;47.460;19.034;2022-10-22T10:30:53;17.55;;;11.43;;
41799;SDS011;27468;47.460;19.034;2022-10-22T10:33:32;14.27;;;10.50;;
41799;SDS011;27468;47.460;19.034;2022-10-22T10:38:56;16.20;;;10.68;;
41799;SDS011;27468;47.460;19.034;2022-10-22T10:41:38;16.58;;;11.30;;
41799;SDS011;27468;47.460;19.034;2022-10-22T10:49:37;16.05;;;10.80;;
41799;SDS011;27468;47.460;19.034;2022-10-22T10:54:57;16.00;;;11.65;;
41799;SDS011;27468;47.460;19.034;2022-10-22T10:57:33;16.58;;;11.13;;
41799;SDS011;27468;47.460;19.034;2022-10-22T11:10:58;19.27;;;11.70;;
41799;SDS011;27468;47.460;19.034;2022-10-22T11:13:33;14.60;;;11.50;;
41799;SDS011;27468;47.460;19.034;2022-10-22T11:16:08;18.33;;;12.20;;
41799;SDS011;27468;47.460;19.034;2022-10-22T11:18:45;19.70;;;12.27;;
41799;SDS011;27468;47.460;19.034;2022-10-22T11:21:37;17.95;;;11.88;;
41799;SDS011;27468;47.460;19.034;2022-10-22T11:26:41;18.92;;;13.07;;
41799;SDS011;27468;47.460;19.034;2022-10-22T11:29:12;16.88;;;11.98;;
41799;SDS011;27468;47.460;19.034;2022-10-22T11:31:41;17.05;;;12.02;;
41799;SDS011;27468;47.460;19.034;2022-10-22T11:34:21;17.83;;;12.38;;
41799;SDS011;27468;47.460;19.034;2022-10-22T11:36:48;15.27;;;10.90;;
41799;SDS011;27468;47.460;19.034;2022-10-22T11:42:11;18.33;;;11.95;;
41799;SDS011;27468;47.460;19.034;2022-10-22T11:44:44;17.48;;;12.13;;
41799;SDS011;27468;47.460;19.034;2022-10-22T11:47:17;19.70;;;12.10;;
41799;SDS011;27468;47.460;19.034;2022-10-22T11:49:58;18.85;;;12.18;;
41799;SDS011;27468;47.460;19.034;2022-10-22T11:52:52;16.75;;;12.35;;
41799;SDS011;27468;47.460;19.034;2022-10-22T11:55:31;15.70;;;11.43;;
41799;SDS011;27468;47.460;19.034;2022-10-22T11:58:01;18.25;;;12.60;;
41799;SDS011;27468;47.460;19.034;2022-10-22T12:00:46;17.17;;;12.15;;
41799;SDS011;27468;47.460;19.034;2022-10-22T12:13:51;17.23;;;12.63;;
41799;SDS011;27468;47.460;19.034;2022-10-22T12:16:25;16.30;;;11.93;;
41799;SDS011;27468;47.460;19.034;2022-10-22T12:19:05;19.30;;;13.00;;
41799;SDS011;27468;47.460;19.034;2022-10-22T12:21:38;18.05;;;11.95;;
41799;SDS011;27468;47.460;19.034;2022-10-22T12:24:06;16.63;;;11.80;;
41799;SDS011;27468;47.460;19.034;2022-10-22T12:26:38;16.67;;;11.80;;
41799;SDS011;27468;47.460;19.034;2022-10-22T12:29:08;17.95;;;11.57;;
41799;SDS011;27468;47.460;19.034;2022-10-22T12:31:35;19.08;;;12.00;;
41799;SDS011;27468;47.460;19.034;2022-10-22T12:34:02;18.35;;;11.80;;
41799;SDS011;27468;47.460;19.034;2022-10-22T12:36:29;17.75;;;12.20;;
41799;SDS011;27468;47.460;19.034;2022-10-22T12:38:59;16.02;;;11.35;;
41799;SDS011;27468;47.460;19.034;2022-10-22T12:41:30;16.15;;;12.18;;
41799;SDS011;27468;47.460;19.034;2022-10-22T12:44:01;18.63;;;11.73;;
41799;SDS011;27468;47.460;19.034;2022-10-22T12:46:29;15.30;;;11.68;;
41799;SDS011;27468;47.460;19.034;2022-10-22T12:49:01;13.85;;;10.93;;
41799;SDS011;27468;47.460;19.034;2022-10-22T12:51:29;20.25;;;11.43;;
41799;SDS011;27468;47.460;19.034;2022-10-22T12:53:56;17.73;;;11.77;;
41799;SDS011;27468;47.460;19.034;2022-10-22T12:56:30;18.58;;;12.63;;
41799;SDS011;27468;47.460;19.034;2022-10-22T12:58:58;16.50;;;11.95;;
41799;SDS011;27468;47.460;19.034;2022-10-22T13:01:28;22.63;;;12.52;;
41799;SDS011;27468;47.460;19.034;2022-10-22T13:04:12;20.00;;;12.65;;
41799;SDS011;27468;47.460;19.034;2022-10-22T13:06:44;19.13;;;11.52;;
41799;SDS011;27468;47.460;19.034;2022-10-22T13:09:19;18.10;;;11.65;;
41799;SDS011;27468;47.460;19.034;2022-10-22T13:11:53;26.58;;;13.82;;
41799;SDS011;27468;47.460;19.034;2022-10-22T13:22:28;18.02;;;12.45;;
41799;SDS011;27468;47.460;19.034;2022-10-22T13:24:54;18.67;;;12.38;;
41799;SDS011;27468;47.460;19.034;2022-10-22T13:27:24;18.30;;;12.40;;
41799;SDS011;27468;47.460;19.034;2022-10-22T13:29:51;24.17;;;13.13;;
41799;SDS011;27468;47.460;19.034;2022-10-22T13:32:30;19.23;;;12.38;;
41799;SDS011;27468;47.460;19.034;2022-10-22T13:34:58;20.58;;;12.45;;
41799;SDS011;27468;47.460;19.034;2022-10-22T13:37:25;17.73;;;12.73;;
41799;SDS011;27468;47.460;19.034;2022-10-22T13:39:53;21.95;;;12.82;;
41799;SDS011;27468;47.460;19.034;2022-10-22T13:42:18;17.20;;;11.40;;
41799;SDS011;27468;47.460;19.034;2022-10-22T13:44:44;20.15;;;12.43;;
41799;SDS011;27468;47.460;19.034;2022-10-22T13:47:28;20.38;;;12.27;;
41799;SDS011;27468;47.460;19.034;2022-10-22T13:49:54;18.50;;;13.07;;
41799;SDS011;27468;47.460;19.034;2022-10-22T13:52:35;20.33;;;12.07;;
41799;SDS011;27468;47.460;19.034;2022-10-22T13:55:05;17.67;;;11.82;;
41799;SDS011;27468;47.460;19.034;2022-10-22T13:57:37;17.88;;;12.48;;
41799;SDS011;27468;47.460;19.034;2022-10-22T14:00:03;16.70;;;12.20;;
41799;SDS011;27468;47.460;19.034;2022-10-22T14:02:28;21.08;;;13.57;;
41799;SDS011;27468;47.460;19.034;2022-10-22T14:04:54;19.63;;;13.40;;
41799;SDS011;27468;47.460;19.034;2022-10-22T14:07:20;22.48;;;13.98;;
41799;SDS011;27468;47.460;19.034;2022-10-22T14:09:45;19.20;;;13.32;;
41799;SDS011;27468;47.460;19.034;2022-10-22T14:12:12;17.27;;;12.57;;
41799;SDS011;27468;47.460;19.034;2022-10-22T14:14:40;22.42;;;14.15;;
41799;SDS011;27468;47.460;19.034;2022-10-22T14:17:08;19.75;;;13.48;;
41799;SDS011;27468;47.460;19.034;2022-10-22T14:19:40;19.67;;;13.68;;
41799;SDS011;27468;47.460;19.034;2022-10-22T14:22:17;21.45;;;13.32;;
41799;SDS011;27468;47.460;19.034;2022-10-22T14:24:43;19.13;;;12.45;;
41799;SDS011;27468;47.460;19.034;2022-10-22T14:27:11;23.13;;;12.93;;
41799;SDS011;27468;47.460;19.034;2022-10-22T14:29:38;18.98;;;12.77;;
41799;SDS011;27468;47.460;19.034;2022-10-22T14:32:05;17.13;;;12.35;;
41799;SDS011;27468;47.460;19.034;2022-10-22T14:34:38;18.77;;;12.52;;
41799;SDS011;27468;47.460;19.034;2022-10-22T14:37:03;18.70;;;12.65;;
41799;SDS011;27468;47.460;19.034;2022-10-22T14:39:29;16.30;;;12.02;;
41799;SDS011;27468;47.460;19.034;2022-10-22T14:41:54;17.77;;;12.27;;
41799;SDS011;27468;47.460;19.034;2022-10-22T14:44:20;18.85;;;12.63;;
41799;SDS011;27468;47.460;19.034;2022-10-22T14:46:45;15.30;;;11.52;;
41799;SDS011;27468;47.460;19.034;2022-10-22T14:49:11;19.23;;;12.63;;
41799;SDS011;27468;47.460;19.034;2022-10-22T14:51:37;18.20;;;12.35;;
41799;SDS011;27468;47.460;19.034;2022-10-22T14:54:02;18.75;;;12.45;;
41799;SDS011;27468;47.460;19.034;2022-10-22T14:56:28;17.27;;;11.98;;
41799;SDS011;27468;47.460;19.034;2022-10-22T14:59:00;21.10;;;11.15;;
41799;SDS011;27468;47.460;19.034;2022-10-22T15:01:25;18.33;;;12.48;;
41799;SDS011;27468;47.460;19.034;2022-10-22T15:03:50;20.02;;;12.65;;
41799;SDS011;27468;47.460;19.034;2022-10-22T15:06:16;19.80;;;12.98;;
41799;SDS011;27468;47.460;19.034;2022-10-22T15:08:43;21.05;;;12.90;;
41799;SDS011;27468;47.460;19.034;2022-10-22T15:11:10;18.70;;;12.45;;
41799;SDS011;27468;47.460;19.034;2022-10-22T15:13:36;18.02;;;12.70;;
41799;SDS011;27468;47.460;19.034;2022-10-22T15:16:05;18.42;;;12.00;;
41799;SDS011;27468;47.460;19.034;2022-10-22T15:18:33;15.35;;;11.48;;
41799;SDS011;27468;47.460;19.034;2022-10-22T15:20:59;15.25;;;10.93;;
41799;SDS011;27468;47.460;19.034;2022-10-22T15:23:32;17.33;;;11.60;;
41799;SDS011;27468;47.460;19.034;2022-10-22T15:25:57;17.88;;;11.68;;
41799;SDS011;27468;47.460;19.034;2022-10-22T15:28:23;16.77;;;11.43;;
41799;SDS011;27468;47.460;19.034;2022-10-22T15:30:56;19.75;;;11.70;;
41799;SDS011;27468;47.460;19.034;2022-10-22T15:33:23;18.23;;;11.75;;
41799;SDS011;27468;47.460;19.034;2022-10-22T15:35:50;16.75;;;10.63;;
41799;SDS011;27468;47.460;19.034;2022-10-22T15:38:15;15.10;;;11.02;;
41799;SDS011;27468;47.460;19.034;2022-10-22T15:40:41;15.82;;;10.77;;
41799;SDS011;27468;47.460;19.034;2022-10-22T15:43:07;14.38;;;10.57;;
41799;SDS011;27468;47.460;19.034;2022-10-22T15:45:33;15.10;;;10.88;;
41799;SDS011;27468;47.460;19.034;2022-10-22T15:47:58;15.63;;;10.60;;
41799;SDS011;27468;47.460;19.034;2022-10-22T15:50:24;15.90;;;10.55;;
41799;SDS011;27468;47.460;19.034;2022-10-22T15:52:49;18.33;;;12.00;;
41799;SDS011;27468;47.460;19.034;2022-10-22T15:55:15;17.15;;;10.95;;
41799;SDS011;27468;47.460;19.034;2022-10-22T15:57:40;17.70;;;10.95;;
41799;SDS011;27468;47.460;19.034;2022-10-22T16:00:06;19.60;;;11.90;;
41799;SDS011;27468;47.460;19.034;2022-10-22T16:02:32;17.25;;;12.25;;
41799;SDS011;27468;47.460;19.034;2022-10-22T16:05:01;17.88;;;12.70;;
41799;SDS011;27468;47.460;19.034;2022-10-22T16:07:26;18.90;;;12.68;;
41799;SDS011;27468;47.460;19.034;2022-10-22T16:09:55;19.10;;;12.88;;
41799;SDS011;27468;47.460;19.034;2022-10-22T16:12:22;19.83;;;13.10;;
41799;SDS011;27468;47.460;19.034;2022-10-22T16:14:50;21.40;;;13.55;;
41799;SDS011;27468;47.460;19.034;2022-10-22T16:17:16;21.08;;;13.75;;
41799;SDS011;27468;47.460;19.034;2022-10-22T16:19:42;18.80;;;12.45;;
41799;SDS011;27468;47.460;19.034;2022-10-22T16:22:08;20.00;;;14.10;;
41799;SDS011;27468;47.460;19.034;2022-10-22T16:24:35;17.48;;;13.30;;